sensor_id;sensor_type;location;lat;lon;timestamp;pressure;altitude;pressure_sealevel;temperature;humidity
51287;BME280;37364;46.974;18.916;2023-12-07T00:02:13;150219.56;;;-0.54;100.00
51287;BME280;37364;46.974;18.916;2023-12-07T00:04:43;150234.94;;;-0.48;100.00
51287;BME280;37364;46.974;18.916;2023-12-07T00:07:15;150229.81;;;-0.50;100.00
51287;BME280;37364;46.974;18.916;2023-12-07T00:09:45;150237.53;;;-0.47;100.00
51287;BME280;37364;46.974;18.916;2023-12-07T00:12:18;150231.09;;;-0.49;100.00
51287;BME280;37364;46.974;18.916;2023-12-07T00:14:49;150232.41;;;-0.49;100.00
51287;BME280;37364;46.974;18.916;2023-12-07T00:17:20;150231.09;;;-0.49;100.00
51287;BME280;37364;46.974;18.916;2023-12-07T00:19:51;150223.41;;;-0.52;100.00
51287;BME280;37364;46.974;18.916;2023-12-07T00:22:23;150240.09;;;-0.46;100.00
51287;BME280;37364;46.974;18.916;2023-12-07T00:24:54;150233.69;;;-0.48;100.00
51287;BME280;37364;46.974;18.916;2023-12-07T00:27:27;150227.28;;;-0.51;100.00
51287;BME280;37364;46.974;18.916;2023-12-07T00:29:58;150238.81;;;-0.46;100.00
51287;BME280;37364;46.974;18.916;2023-12-07T00:32:29;150242.69;;;-0.45;100.00
51287;BME280;37364;46.974;18.916;2023-12-07T00:35:00;150240.09;;;-0.46;100.00
51287;BME280;37364;46.974;18.916;2023-12-07T00:37:30;150238.81;;;-0.46;100.00
51287;BME280;37364;46.974;18.916;2023-12-07T00:40:01;150237.53;;;-0.47;100.00
51287;BME280;37364;46.974;18.916;2023-12-07T00:42:34;150245.22;;;-0.44;100.00
51287;BME280;37364;46.974;18.916;2023-12-07T00:45:06;150237.53;;;-0.47;100.00
51287;BME280;37364;46.974;18.916;2023-12-07T00:47:37;150216.97;;;-0.55;100.00
51287;BME280;37364;46.974;18.916;2023-12-07T00:50:08;150240.09;;;-0.46;100.00
51287;BME280;37364;46.974;18.916;2023-12-07T00:52:39;150243.94;;;-0.44;100.00
51287;BME280;37364;46.974;18.916;2023-12-07T00:55:09;150245.22;;;-0.44;100.00
51287;BME280;37364;46.974;18.916;2023-12-07T00:57:43;150232.41;;;-0.49;100.00
51287;BME280;37364;46.974;18.916;2023-12-07T01:00:14;150236.22;;;-0.47;100.00
51287;BME280;37364;46.974;18.916;2023-12-07T01:02:44;150210.56;;;-0.57;100.00
51287;BME280;37364;46.974;18.916;2023-12-07T01:05:15;150236.22;;;-0.47;100.00
51287;BME280;37364;46.974;18.916;2023-12-07T01:07:45;150240.09;;;-0.46;100.00
51287;BME280;37364;46.974;18.916;2023-12-07T01:10:16;150232.41;;;-0.49;100.00
51287;BME280;37364;46.974;18.916;2023-12-07T01:12:50;150219.56;;;-0.54;100.00
51287;BME280;37364;46.974;18.916;2023-12-07T01:15:21;150234.94;;;-0.48;100.00
51287;BME280;37364;46.974;18.916;2023-12-07T01:17:51;150224.69;;;-0.52;100.00
51287;BME280;37364;46.974;18.916;2023-12-07T01:20:22;150246.53;;;-0.43;100.00
51287;BME280;37364;46.974;18.916;2023-12-07T01:22:52;150231.09;;;-0.49;100.00
51287;BME280;37364;46.974;18.916;2023-12-07T01:25:22;150260.63;;;-0.37;100.00
51287;BME280;37364;46.974;18.916;2023-12-07T01:27:56;150237.53;;;-0.47;100.00
51287;BME280;37364;46.974;18.916;2023-12-07T01:30:26;150234.94;;;-0.48;100.00
51287;BME280;37364;46.974;18.916;2023-12-07T01:32:57;150234.94;;;-0.48;100.00
51287;BME280;37364;46.974;18.916;2023-12-07T01:35:27;150237.53;;;-0.47;100.00
51287;BME280;37364;46.974;18.916;2023-12-07T01:37:58;150250.34;;;-0.42;100.00
51287;BME280;37364;46.974;18.916;2023-12-07T01:40:29;150258.06;;;-0.38;100.00
51287;BME280;37364;46.974;18.916;2023-12-07T01:43:02;150247.81;;;-0.43;100.00
51287;BME280;37364;46.974;18.916;2023-12-07T01:45:33;150240.09;;;-0.46;100.00
51287;BME280;37364;46.974;18.916;2023-12-07T01:48:04;150247.81;;;-0.43;100.00
51287;BME280;37364;46.974;18.916;2023-12-07T01:50:35;150267.06;;;-0.35;100.00
51287;BME280;37364;46.974;18.916;2023-12-07T01:53:06;150245.22;;;-0.44;100.00
51287;BME280;37364;46.974;18.916;2023-12-07T01:55:37;150247.81;;;-0.43;100.00
51287;BME280;37364;46.974;18.916;2023-12-07T01:58:10;150252.94;;;-0.41;100.00
51287;BME280;37364;46.974;18.916;2023-12-07T02:00:41;150270.88;;;-0.33;100.00
51287;BME280;37364;46.974;18.916;2023-12-07T02:03:12;150259.34;;;-0.38;100.00
51287;BME280;37364;46.974;18.916;2023-12-07T02:05:47;150273.47;;;-0.32;100.00
51287;BME280;37364;46.974;18.916;2023-12-07T02:08:18;150267.06;;;-0.35;100.00
51287;BME280;37364;46.974;18.916;2023-12-07T02:10:48;150258.06;;;-0.38;100.00
51287;BME280;37364;46.974;18.916;2023-12-07T02:13:22;150242.69;;;-0.45;100.00
51287;BME280;37364;46.974;18.916;2023-12-07T02:15:54;150260.63;;;-0.37;100.00
51287;BME280;37364;46.974;18.916;2023-12-07T02:18:30;150263.22;;;-0.36;100.00
51287;BME280;37364;46.974;18.916;2023-12-07T02:21:09;150268.34;;;-0.34;100.00
51287;BME280;37364;46.974;18.916;2023-12-07T02:23:44;150268.34;;;-0.34;100.00
51287;BME280;37364;46.974;18.916;2023-12-07T02:26:31;150259.34;;;-0.38;100.00
51287;BME280;37364;46.974;18.916;2023-12-07T02:29:01;150269.63;;;-0.34;100.00
51287;BME280;37364;46.974;18.916;2023-12-07T02:31:32;150264.47;;;-0.36;100.00
51287;BME280;37364;46.974;18.916;2023-12-07T02:34:02;150263.22;;;-0.36;100.00
51287;BME280;37364;46.974;18.916;2023-12-07T02:36:34;150255.47;;;-0.40;100.00
51287;BME280;37364;46.974;18.916;2023-12-07T02:39:06;150270.88;;;-0.33;100.00
51287;BME280;37364;46.974;18.916;2023-12-07T02:41:43;150264.47;;;-0.36;100.00
51287;BME280;37364;46.974;18.916;2023-12-07T02:44:15;150256.81;;;-0.39;100.00
51287;BME280;37364;46.974;18.916;2023-12-07T02:46:46;150277.34;;;-0.31;100.00
51287;BME280;37364;46.974;18.916;2023-12-07T02:49:16;150267.06;;;-0.35;100.00
51287;BME280;37364;46.974;18.916;2023-12-07T02:51:47;150274.75;;;-0.32;100.00
51287;BME280;37364;46.974;18.916;2023-12-07T02:54:18;150272.22;;;-0.33;100.00
51287;BME280;37364;46.974;18.916;2023-12-07T02:56:51;150270.88;;;-0.33;100.00
51287;BME280;37364;46.974;18.916;2023-12-07T02:59:21;150269.63;;;-0.34;100.00
51287;BME280;37364;46.974;18.916;2023-12-07T03:01:51;150267.06;;;-0.35;100.00
51287;BME280;37364;46.974;18.916;2023-12-07T03:04:22;150260.63;;;-0.37;100.00
51287;BME280;37364;46.974;18.916;2023-12-07T03:06:53;150270.88;;;-0.33;100.00
51287;BME280;37364;46.974;18.916;2023-12-07T03:09:23;150265.75;;;-0.35;100.00
51287;BME280;37364;46.974;18.916;2023-12-07T03:11:56;150269.63;;;-0.34;100.00
51287;BME280;37364;46.974;18.916;2023-12-07T03:14:27;150278.59;;;-0.30;100.00
51287;BME280;37364;46.974;18.916;2023-12-07T03:16:57;150264.47;;;-0.36;100.00
51287;BME280;37364;46.974;18.916;2023-12-07T03:19:28;150270.88;;;-0.33;100.00
51287;BME280;37364;46.974;18.916;2023-12-07T03:21:58;150263.22;;;-0.36;100.00
51287;BME280;37364;46.974;18.916;2023-12-07T03:24:28;150265.75;;;-0.35;100.00
51287;BME280;37364;46.974;18.916;2023-12-07T03:27:02;150277.34;;;-0.31;100.00
51287;BME280;37364;46.974;18.916;2023-12-07T03:29:33;150276.06;;;-0.31;100.00
51287;BME280;37364;46.974;18.916;2023-12-07T03:32:04;150272.22;;;-0.33;100.00
51287;BME280;37364;46.974;18.916;2023-12-07T03:34:34;150268.34;;;-0.34;100.00
51287;BME280;37364;46.974;18.916;2023-12-07T03:37:04;150272.22;;;-0.33;100.00
51287;BME280;37364;46.974;18.916;2023-12-07T03:39:35;150279.88;;;-0.30;100.00
51287;BME280;37364;46.974;18.916;2023-12-07T03:42:08;150268.34;;;-0.34;100.00
51287;BME280;37364;46.974;18.916;2023-12-07T03:44:59;150265.75;;;-0.35;100.00
51287;BME280;37364;46.974;18.916;2023-12-07T03:47:29;150270.88;;;-0.33;100.00
51287;BME280;37364;46.974;18.916;2023-12-07T03:49:59;150258.06;;;-0.38;100.00
51287;BME280;37364;46.974;18.916;2023-12-07T03:52:30;150258.06;;;-0.38;100.00
51287;BME280;37364;46.974;18.916;2023-12-07T03:55:00;150261.94;;;-0.37;100.00
51287;BME280;37364;46.974;18.916;2023-12-07T03:57:34;150261.94;;;-0.37;100.00
51287;BME280;37364;46.974;18.916;2023-12-07T04:00:06;150251.66;;;-0.41;100.00
51287;BME280;37364;46.974;18.916;2023-12-07T04:02:37;150277.34;;;-0.31;100.00
51287;BME280;37364;46.974;18.916;2023-12-07T04:05:08;150260.63;;;-0.37;100.00
51287;BME280;37364;46.974;18.916;2023-12-07T04:07:39;150278.59;;;-0.30;100.00
51287;BME280;37364;46.974;18.916;2023-12-07T04:10:10;150255.47;;;-0.40;100.00
51287;BME280;37364;46.974;18.916;2023-12-07T04:12:43;150278.59;;;-0.30;100.00
51287;BME280;37364;46.974;18.916;2023-12-07T04:15:14;150270.88;;;-0.33;100.00
51287;BME280;37364;46.974;18.916;2023-12-07T04:17:46;150264.47;;;-0.36;100.00
51287;BME280;37364;46.974;18.916;2023-12-07T04:20:16;150256.81;;;-0.39;100.00
51287;BME280;37364;46.974;18.916;2023-12-07T04:22:46;150260.63;;;-0.37;100.00
51287;BME280;37364;46.974;18.916;2023-12-07T04:25:17;150273.47;;;-0.32;100.00
51287;BME280;37364;46.974;18.916;2023-12-07T04:27:50;150249.09;;;-0.42;100.00
51287;BME280;37364;46.974;18.916;2023-12-07T04:30:21;150272.22;;;-0.33;100.00
51287;BME280;37364;46.974;18.916;2023-12-07T04:32:51;150270.88;;;-0.33;100.00
51287;BME280;37364;46.974;18.916;2023-12-07T04:35:21;150265.75;;;-0.35;100.00
51287;BME280;37364;46.974;18.916;2023-12-07T04:37:52;150270.88;;;-0.33;100.00
51287;BME280;37364;46.974;18.916;2023-12-07T04:40:23;150267.06;;;-0.35;100.00
51287;BME280;37364;46.974;18.916;2023-12-07T04:42:57;150277.34;;;-0.31;100.00
51287;BME280;37364;46.974;18.916;2023-12-07T04:45:27;150269.63;;;-0.34;100.00
51287;BME280;37364;46.974;18.916;2023-12-07T04:47:58;150263.22;;;-0.36;100.00
51287;BME280;37364;46.974;18.916;2023-12-07T04:50:28;150267.06;;;-0.35;100.00
51287;BME280;37364;46.974;18.916;2023-12-07T04:52:59;150272.22;;;-0.33;100.00
51287;BME280;37364;46.974;18.916;2023-12-07T04:55:29;150273.47;;;-0.32;100.00
51287;BME280;37364;46.974;18.916;2023-12-07T04:58:02;150281.19;;;-0.29;100.00
51287;BME280;37364;46.974;18.916;2023-12-07T05:00:33;150276.06;;;-0.31;100.00
51287;BME280;37364;46.974;18.916;2023-12-07T05:03:04;150268.34;;;-0.34;100.00
51287;BME280;37364;46.974;18.916;2023-12-07T05:05:35;150277.34;;;-0.31;100.00
51287;BME280;37364;46.974;18.916;2023-12-07T05:08:06;150263.22;;;-0.36;100.00
51287;BME280;37364;46.974;18.916;2023-12-07T05:10:36;150282.47;;;-0.29;100.00
51287;BME280;37364;46.974;18.916;2023-12-07T05:13:09;150268.34;;;-0.34;100.00
51287;BME280;37364;46.974;18.916;2023-12-07T05:15:40;150273.47;;;-0.32;100.00
51287;BME280;37364;46.974;18.916;2023-12-07T05:18:10;150273.47;;;-0.32;100.00
51287;BME280;37364;46.974;18.916;2023-12-07T05:20:41;150267.06;;;-0.35;100.00
51287;BME280;37364;46.974;18.916;2023-12-07T05:23:11;150270.88;;;-0.33;100.00
51287;BME280;37364;46.974;18.916;2023-12-07T05:25:41;150270.88;;;-0.33;100.00
51287;BME280;37364;46.974;18.916;2023-12-07T05:28:15;150267.06;;;-0.35;100.00
51287;BME280;37364;46.974;18.916;2023-12-07T05:30:45;150267.06;;;-0.35;100.00
51287;BME280;37364;46.974;18.916;2023-12-07T05:33:16;150267.06;;;-0.35;100.00
51287;BME280;37364;46.974;18.916;2023-12-07T05:35:46;150273.47;;;-0.32;100.00
51287;BME280;37364;46.974;18.916;2023-12-07T05:38:17;150267.06;;;-0.35;100.00
51287;BME280;37364;46.974;18.916;2023-12-07T05:40:47;150265.75;;;-0.35;100.00
51287;BME280;37364;46.974;18.916;2023-12-07T05:43:20;150252.94;;;-0.41;100.00
51287;BME280;37364;46.974;18.916;2023-12-07T05:45:51;150242.69;;;-0.45;100.00
51287;BME280;37364;46.974;18.916;2023-12-07T05:48:21;150241.34;;;-0.45;100.00
51287;BME280;37364;46.974;18.916;2023-12-07T05:50:51;150250.34;;;-0.42;100.00
51287;BME280;37364;46.974;18.916;2023-12-07T05:53:23;150246.53;;;-0.43;100.00
51287;BME280;37364;46.974;18.916;2023-12-07T05:55:54;150252.94;;;-0.41;100.00
51287;BME280;37364;46.974;18.916;2023-12-07T05:58:31;150258.06;;;-0.38;100.00
51287;BME280;37364;46.974;18.916;2023-12-07T06:01:03;150259.34;;;-0.38;100.00
51287;BME280;37364;46.974;18.916;2023-12-07T06:03:35;150258.06;;;-0.38;100.00
51287;BME280;37364;46.974;18.916;2023-12-07T06:06:06;150250.34;;;-0.42;100.00
51287;BME280;37364;46.974;18.916;2023-12-07T06:08:38;150227.28;;;-0.51;100.00
51287;BME280;37364;46.974;18.916;2023-12-07T06:11:09;150236.22;;;-0.47;100.00
51287;BME280;37364;46.974;18.916;2023-12-07T06:13:42;150260.63;;;-0.37;100.00
51287;BME280;37364;46.974;18.916;2023-12-07T06:16:12;150234.94;;;-0.48;100.00
51287;BME280;37364;46.974;18.916;2023-12-07T06:18:46;150252.94;;;-0.41;100.00
51287;BME280;37364;46.974;18.916;2023-12-07T06:21:17;150238.81;;;-0.46;100.00
51287;BME280;37364;46.974;18.916;2023-12-07T06:23:47;150243.94;;;-0.44;100.00
51287;BME280;37364;46.974;18.916;2023-12-07T06:26:18;150260.63;;;-0.37;100.00
51287;BME280;37364;46.974;18.916;2023-12-07T06:28:51;150247.81;;;-0.43;100.00
51287;BME280;37364;46.974;18.916;2023-12-07T06:31:21;150231.09;;;-0.49;100.00
51287;BME280;37364;46.974;18.916;2023-12-07T06:33:52;150259.34;;;-0.38;100.00
51287;BME280;37364;46.974;18.916;2023-12-07T06:36:23;150255.47;;;-0.40;100.00
51287;BME280;37364;46.974;18.916;2023-12-07T06:38:54;150259.34;;;-0.38;100.00
51287;BME280;37364;46.974;18.916;2023-12-07T06:41:25;150259.34;;;-0.38;100.00
51287;BME280;37364;46.974;18.916;2023-12-07T06:43:58;150245.22;;;-0.44;100.00
51287;BME280;37364;46.974;18.916;2023-12-07T06:46:28;150245.22;;;-0.44;100.00
51287;BME280;37364;46.974;18.916;2023-12-07T06:48:59;150255.47;;;-0.40;100.00
51287;BME280;37364;46.974;18.916;2023-12-07T06:51:30;150246.53;;;-0.43;100.00
51287;BME280;37364;46.974;18.916;2023-12-07T06:54:01;150260.63;;;-0.37;100.00
51287;BME280;37364;46.974;18.916;2023-12-07T06:56:31;150249.09;;;-0.42;100.00
51287;BME280;37364;46.974;18.916;2023-12-07T06:59:05;150252.94;;;-0.41;100.00
51287;BME280;37364;46.974;18.916;2023-12-07T07:01:37;150265.75;;;-0.35;100.00
51287;BME280;37364;46.974;18.916;2023-12-07T07:04:08;150265.75;;;-0.35;100.00
51287;BME280;37364;46.974;18.916;2023-12-07T07:06:40;150268.34;;;-0.34;100.00
51287;BME280;37364;46.974;18.916;2023-12-07T07:09:10;150268.34;;;-0.34;100.00
51287;BME280;37364;46.974;18.916;2023-12-07T07:11:40;150264.47;;;-0.36;100.00
51287;BME280;37364;46.974;18.916;2023-12-07T07:14:13;150264.47;;;-0.36;100.00
51287;BME280;37364;46.974;18.916;2023-12-07T07:16:44;150252.94;;;-0.41;100.00
51287;BME280;37364;46.974;18.916;2023-12-07T07:19:14;150249.09;;;-0.42;100.00
51287;BME280;37364;46.974;18.916;2023-12-07T07:21:45;150258.06;;;-0.38;100.00
51287;BME280;37364;46.974;18.916;2023-12-07T07:24:15;150268.34;;;-0.34;100.00
51287;BME280;37364;46.974;18.916;2023-12-07T07:26:46;150268.34;;;-0.34;100.00
51287;BME280;37364;46.974;18.916;2023-12-07T07:29:18;150281.19;;;-0.29;100.00
51287;BME280;37364;46.974;18.916;2023-12-07T07:31:49;150279.88;;;-0.30;100.00
51287;BME280;37364;46.974;18.916;2023-12-07T07:34:19;150295.28;;;-0.24;100.00
51287;BME280;37364;46.974;18.916;2023-12-07T07:36:50;150283.75;;;-0.28;100.00
51287;BME280;37364;46.974;18.916;2023-12-07T07:39:20;150292.75;;;-0.25;100.00
51287;BME280;37364;46.974;18.916;2023-12-07T07:41:50;150272.22;;;-0.33;100.00
51287;BME280;37364;46.974;18.916;2023-12-07T07:44:23;150286.34;;;-0.27;100.00
51287;BME280;37364;46.974;18.916;2023-12-07T07:46:54;150301.75;;;-0.21;100.00
51287;BME280;37364;46.974;18.916;2023-12-07T07:49:24;150299.16;;;-0.22;100.00
51287;BME280;37364;46.974;18.916;2023-12-07T07:51:55;150295.28;;;-0.24;100.00
51287;BME280;37364;46.974;18.916;2023-12-07T07:54:26;150283.75;;;-0.28;100.00
51287;BME280;37364;46.974;18.916;2023-12-07T07:56:56;150312.00;;;-0.17;100.00
51287;BME280;37364;46.974;18.916;2023-12-07T07:59:29;150297.88;;;-0.23;100.00
51287;BME280;37364;46.974;18.916;2023-12-07T08:02:00;150304.28;;;-0.20;100.00
51287;BME280;37364;46.974;18.916;2023-12-07T08:04:30;150282.47;;;-0.29;100.00
51287;BME280;37364;46.974;18.916;2023-12-07T08:07:01;150308.13;;;-0.18;100.00
51287;BME280;37364;46.974;18.916;2023-12-07T08:09:31;150283.75;;;-0.28;100.00
51287;BME280;37364;46.974;18.916;2023-12-07T08:12:02;150324.81;;;-0.12;100.00
51287;BME280;37364;46.974;18.916;2023-12-07T08:14:36;150347.94;;;-0.03;100.00
51287;BME280;37364;46.974;18.916;2023-12-07T08:17:07;150326.13;;;-0.11;100.00
51287;BME280;37364;46.974;18.916;2023-12-07T08:19:37;150342.81;;;-0.05;100.00
51287;BME280;37364;46.974;18.916;2023-12-07T08:22:08;150350.53;;;-0.02;100.00
51287;BME280;37364;46.974;18.916;2023-12-07T08:24:39;150355.69;;;0.01;100.00
51287;BME280;37364;46.974;18.916;2023-12-07T08:27:11;150358.22;;;0.02;100.00
51287;BME280;37364;46.974;18.916;2023-12-07T08:29:44;150349.22;;;-0.02;100.00
51287;BME280;37364;46.974;18.916;2023-12-07T08:32:15;150351.81;;;-0.01;100.00
51287;BME280;37364;46.974;18.916;2023-12-07T08:34:46;150368.50;;;0.06;100.00
51287;BME280;37364;46.974;18.916;2023-12-07T08:37:16;150331.28;;;-0.09;100.00
51287;BME280;37364;46.974;18.916;2023-12-07T08:39:47;150360.81;;;0.03;100.00
51287;BME280;37364;46.974;18.916;2023-12-07T08:42:17;150372.34;;;0.07;100.00
51287;BME280;37364;46.974;18.916;2023-12-07T08:44:50;150362.09;;;0.03;100.00
51287;BME280;37364;46.974;18.916;2023-12-07T08:47:20;150376.22;;;0.09;100.00
51287;BME280;37364;46.974;18.916;2023-12-07T08:49:55;150362.09;;;0.03;100.00
51287;BME280;37364;46.974;18.916;2023-12-07T08:52:25;150359.53;;;0.02;100.00
51287;BME280;37364;46.974;18.916;2023-12-07T08:55:11;150346.69;;;-0.03;100.00
51287;BME280;37364;46.974;18.916;2023-12-07T08:57:43;150377.47;;;0.09;100.00
51287;BME280;37364;46.974;18.916;2023-12-07T09:00:17;150350.53;;;-0.02;100.00
51287;BME280;37364;46.974;18.916;2023-12-07T09:02:51;150358.22;;;0.02;100.00
51287;BME280;37364;46.974;18.916;2023-12-07T09:05:22;150367.22;;;0.05;100.00
51287;BME280;37364;46.974;18.916;2023-12-07T09:07:52;150400.63;;;0.18;100.00
51287;BME280;37364;46.974;18.916;2023-12-07T09:10:23;150381.34;;;0.11;100.00
51287;BME280;37364;46.974;18.916;2023-12-07T09:12:54;150409.63;;;0.22;100.00
51287;BME280;37364;46.974;18.916;2023-12-07T09:15:27;150398.03;;;0.17;100.00
51287;BME280;37364;46.974;18.916;2023-12-07T09:17:57;150399.34;;;0.18;100.00
51287;BME280;37364;46.974;18.916;2023-12-07T09:20:28;150386.50;;;0.13;100.00
51287;BME280;37364;46.974;18.916;2023-12-07T09:22:58;150358.22;;;0.02;100.00
51287;BME280;37364;46.974;18.916;2023-12-07T09:25:29;150412.16;;;0.23;100.00
51287;BME280;37364;46.974;18.916;2023-12-07T09:28:00;150401.91;;;0.19;100.00
51287;BME280;37364;46.974;18.916;2023-12-07T09:30:34;150378.75;;;0.10;100.00
51287;BME280;37364;46.974;18.916;2023-12-07T09:33:05;150389.06;;;0.14;100.00
51287;BME280;37364;46.974;18.916;2023-12-07T09:35:35;150383.94;;;0.12;100.00
51287;BME280;37364;46.974;18.916;2023-12-07T09:38:08;150377.47;;;0.09;100.00
51287;BME280;37364;46.974;18.916;2023-12-07T09:40:39;150399.34;;;0.18;100.00
51287;BME280;37364;46.974;18.916;2023-12-07T09:43:09;150377.47;;;0.09;100.00
51287;BME280;37364;46.974;18.916;2023-12-07T09:45:44;150378.75;;;0.10;100.00
51287;BME280;37364;46.974;18.916;2023-12-07T09:48:16;150401.91;;;0.19;100.00
51287;BME280;37364;46.974;18.916;2023-12-07T09:50:47;150386.50;;;0.13;100.00
51287;BME280;37364;46.974;18.916;2023-12-07T09:53:18;150396.75;;;0.17;100.00
51287;BME280;37364;46.974;18.916;2023-12-07T09:55:46;150395.50;;;0.16;100.00
51287;BME280;37364;46.974;18.916;2023-12-07T09:58:17;150395.50;;;0.16;100.00
51287;BME280;37364;46.974;18.916;2023-12-07T10:01:06;150413.47;;;0.24;100.00
51287;BME280;37364;46.974;18.916;2023-12-07T10:03:41;150439.16;;;0.34;100.00
51287;BME280;37364;46.974;18.916;2023-12-07T10:06:15;150399.34;;;0.18;100.00
51287;BME280;37364;46.974;18.916;2023-12-07T10:08:45;150416.03;;;0.25;100.00
51287;BME280;37364;46.974;18.916;2023-12-07T10:11:15;150398.03;;;0.17;100.00
51287;BME280;37364;46.974;18.916;2023-12-07T10:13:46;150418.63;;;0.26;100.00
51287;BME280;37364;46.974;18.916;2023-12-07T10:16:20;150410.91;;;0.23;100.00
51287;BME280;37364;46.974;18.916;2023-12-07T10:18:50;150423.75;;;0.28;100.00
51287;BME280;37364;46.974;18.916;2023-12-07T10:21:31;150407.03;;;0.21;100.00
51287;BME280;37364;46.974;18.916;2023-12-07T10:24:02;150432.72;;;0.31;100.00
51287;BME280;37364;46.974;18.916;2023-12-07T10:26:33;150396.75;;;0.17;100.00
51287;BME280;37364;46.974;18.916;2023-12-07T10:29:05;150413.47;;;0.24;100.00
51287;BME280;37364;46.974;18.916;2023-12-07T10:32:00;150443.03;;;0.35;100.00
51287;BME280;37364;46.974;18.916;2023-12-07T10:34:32;150425.03;;;0.28;100.00
51287;BME280;37364;46.974;18.916;2023-12-07T10:37:03;150409.63;;;0.22;100.00
51287;BME280;37364;46.974;18.916;2023-12-07T10:39:34;150448.16;;;0.37;100.00
51287;BME280;37364;46.974;18.916;2023-12-07T10:42:09;150428.91;;;0.30;100.00
51287;BME280;37364;46.974;18.916;2023-12-07T10:44:42;150412.16;;;0.23;100.00
51287;BME280;37364;46.974;18.916;2023-12-07T10:47:15;150416.03;;;0.25;100.00
51287;BME280;37364;46.974;18.916;2023-12-07T10:49:51;150392.88;;;0.15;100.00
51287;BME280;37364;46.974;18.916;2023-12-07T10:52:24;150408.31;;;0.22;100.00
51287;BME280;37364;46.974;18.916;2023-12-07T10:55:02;150401.91;;;0.19;100.00
51287;BME280;37364;46.974;18.916;2023-12-07T10:57:34;150414.75;;;0.24;100.00
51287;BME280;37364;46.974;18.916;2023-12-07T11:00:06;150410.91;;;0.23;100.00
51287;BME280;37364;46.974;18.916;2023-12-07T11:02:40;150408.31;;;0.22;100.00
51287;BME280;37364;46.974;18.916;2023-12-07T11:05:11;150423.75;;;0.28;100.00
51287;BME280;37364;46.974;18.916;2023-12-07T11:07:49;150427.56;;;0.29;100.00
51287;BME280;37364;46.974;18.916;2023-12-07T11:10:25;150428.91;;;0.30;100.00
51287;BME280;37364;46.974;18.916;2023-12-07T11:13:05;150432.72;;;0.31;100.00
51287;BME280;37364;46.974;18.916;2023-12-07T11:15:39;150436.56;;;0.33;100.00
51287;BME280;37364;46.974;18.916;2023-12-07T11:18:13;150418.63;;;0.26;100.00
51287;BME280;37364;46.974;18.916;2023-12-07T11:20:45;150410.91;;;0.23;100.00
51287;BME280;37364;46.974;18.916;2023-12-07T11:23:16;150445.56;;;0.36;100.00
51287;BME280;37364;46.974;18.916;2023-12-07T11:25:48;150427.56;;;0.29;100.00
51287;BME280;37364;46.974;18.916;2023-12-07T11:28:34;150423.75;;;0.28;100.00
51287;BME280;37364;46.974;18.916;2023-12-07T11:31:07;150462.25;;;0.43;100.00
51287;BME280;37364;46.974;18.916;2023-12-07T11:33:41;150449.44;;;0.38;100.00
51287;BME280;37364;46.974;18.916;2023-12-07T11:36:13;150448.16;;;0.37;100.00
51287;BME280;37364;46.974;18.916;2023-12-07T11:41:55;150443.03;;;0.35;100.00
51287;BME280;37364;46.974;18.916;2023-12-07T11:44:33;150439.16;;;0.34;100.00
51287;BME280;37364;46.974;18.916;2023-12-07T11:47:04;150412.16;;;0.23;100.00
51287;BME280;37364;46.974;18.916;2023-12-07T11:49:37;150435.31;;;0.32;100.00
51287;BME280;37364;46.974;18.916;2023-12-07T11:52:14;150435.31;;;0.32;100.00
51287;BME280;37364;46.974;18.916;2023-12-07T11:54:46;150418.63;;;0.26;100.00
51287;BME280;37364;46.974;18.916;2023-12-07T11:57:17;150404.47;;;0.20;100.00
51287;BME280;37364;46.974;18.916;2023-12-07T11:59:48;150387.75;;;0.13;100.00
51287;BME280;37364;46.974;18.916;2023-12-07T12:02:20;150392.88;;;0.15;100.00
51287;BME280;37364;46.974;18.916;2023-12-07T12:04:53;150389.06;;;0.14;100.00
51287;BME280;37364;46.974;18.916;2023-12-07T12:07:24;150390.34;;;0.14;100.00
51287;BME280;37364;46.974;18.916;2023-12-07T12:09:55;150389.06;;;0.14;100.00
51287;BME280;37364;46.974;18.916;2023-12-07T12:12:29;150382.63;;;0.11;100.00
51287;BME280;37364;46.974;18.916;2023-12-07T12:15:03;150417.31;;;0.25;100.00
51287;BME280;37364;46.974;18.916;2023-12-07T12:17:35;150412.16;;;0.23;100.00
51287;BME280;37364;46.974;18.916;2023-12-07T12:20:10;150417.31;;;0.25;100.00
51287;BME280;37364;46.974;18.916;2023-12-07T12:22:44;150417.31;;;0.25;100.00
51287;BME280;37364;46.974;18.916;2023-12-07T12:25:15;150426.31;;;0.29;100.00
51287;BME280;37364;46.974;18.916;2023-12-07T12:27:46;150417.31;;;0.25;100.00
51287;BME280;37364;46.974;18.916;2023-12-07T12:30:17;150421.16;;;0.27;100.00
51287;BME280;37364;46.974;18.916;2023-12-07T12:32:50;150450.72;;;0.38;100.00
51287;BME280;37364;46.974;18.916;2023-12-07T12:35:23;150425.03;;;0.28;100.00
51287;BME280;37364;46.974;18.916;2023-12-07T12:37:55;150423.75;;;0.28;100.00
51287;BME280;37364;46.974;18.916;2023-12-07T12:40:27;150435.31;;;0.32;100.00
51287;BME280;37364;46.974;18.916;2023-12-07T12:42:58;150425.03;;;0.28;100.00
51287;BME280;37364;46.974;18.916;2023-12-07T12:45:29;150419.91;;;0.26;100.00
51287;BME280;37364;46.974;18.916;2023-12-07T12:48:00;150426.31;;;0.29;100.00
51287;BME280;37364;46.974;18.916;2023-12-07T12:50:37;150417.31;;;0.25;100.00
51287;BME280;37364;46.974;18.916;2023-12-07T12:53:09;150440.44;;;0.34;100.00
51287;BME280;37364;46.974;18.916;2023-12-07T12:55:41;150439.16;;;0.34;100.00
51287;BME280;37364;46.974;18.916;2023-12-07T12:58:14;150437.91;;;0.33;100.00
51287;BME280;37364;46.974;18.916;2023-12-07T13:00:45;150437.91;;;0.33;100.00